CheckWX is a tool to help pilots better visualize weather data.  It is not intended as a substitute for an official pre-flight weather briefing.

09:10:05 UTC

EDDH METAR
Hamburg Airport
Hamburg, Germany
Current

20 mins ago

EDDH 210850Z 23004KT 170V330 9999 FEW021 17/11 Q1023 NOSIG
Observed
Sep-21 @ 08:50 UTC
Wind
  • 230° at 4 KTS
Visibility
10,000+ meters
Flight Rules
VFR
Cloud Levels
  • Few at 2,100' AGL
Temperature
17°C / 63°F
Dewpoint
11°C / 52°F
Humidity
68%
Altimeter
30.21" Hg
Pressure
1022.92 hPa
Previous

50 mins ago

EDDH 210820Z 24004KT 200V320 9999 FEW023 17/11 Q1023 NOSIG
Observed
Sep-21 @ 08:20 UTC
Wind
  • 240° at 4 KTS
Visibility
10,000+ meters
Flight Rules
VFR
Cloud Levels
  • Few at 2,300' AGL
Temperature
17°C / 63°F
Dewpoint
11°C / 52°F
Humidity
68%
Altimeter
30.21" Hg
Pressure
1022.92 hPa
Previous

1 hour ago

EDDH 210750Z VRB02KT 9999 FEW023 16/11 Q1023 NOSIG
Observed
Sep-21 @ 07:50 UTC
Wind
  • Variable at 2 KTS
Visibility
10,000+ meters
Flight Rules
VFR
Cloud Levels
  • Few at 2,300' AGL
Temperature
16°C / 61°F
Dewpoint
11°C / 52°F
Humidity
72%
Altimeter
30.21" Hg
Pressure
1022.92 hPa